sensor_id;sensor_type;location;lat;lon;timestamp;P1;durP1;ratioP1;P2;durP2;ratioP2
55758;SDS011;41678;52.126;20.664;2022-10-26T06:40:41;28.60;;;12.13;;
55758;SDS011;41678;52.126;20.664;2022-10-26T06:57:27;32.83;;;13.63;;
55758;SDS011;41678;52.126;20.664;2022-10-26T07:02:52;35.22;;;14.05;;
55758;SDS011;41678;52.126;20.664;2022-10-26T07:08:12;26.73;;;14.35;;
55758;SDS011;41678;52.126;20.664;2022-10-26T07:13:32;31.58;;;13.35;;
55758;SDS011;41678;52.126;20.664;2022-10-26T07:18:51;31.45;;;13.57;;
55758;SDS011;41678;52.126;20.664;2022-10-26T07:24:11;30.95;;;13.27;;
55758;SDS011;41678;52.126;20.664;2022-10-26T07:29:31;31.33;;;13.13;;
55758;SDS011;41678;52.126;20.664;2022-10-26T07:40:13;29.48;;;12.77;;
55758;SDS011;41678;52.126;20.664;2022-10-26T07:45:33;35.60;;;13.70;;
55758;SDS011;41678;52.126;20.664;2022-10-26T07:50:53;30.48;;;13.20;;
55758;SDS011;41678;52.126;20.664;2022-10-26T07:56:13;32.05;;;12.93;;
55758;SDS011;41678;52.126;20.664;2022-10-26T08:01:32;31.42;;;13.52;;
55758;SDS011;41678;52.126;20.664;2022-10-26T08:06:52;26.30;;;11.48;;
55758;SDS011;41678;52.126;20.664;2022-10-26T08:12:12;28.63;;;11.48;;
55758;SDS011;41678;52.126;20.664;2022-10-26T08:17:34;29.75;;;10.80;;
55758;SDS011;41678;52.126;20.664;2022-10-26T08:22:57;27.60;;;11.82;;
55758;SDS011;41678;52.126;20.664;2022-10-26T08:28:17;29.50;;;11.65;;
55758;SDS011;41678;52.126;20.664;2022-10-26T08:33:37;25.90;;;11.23;;
55758;SDS011;41678;52.126;20.664;2022-10-26T08:38:56;27.85;;;11.70;;
55758;SDS011;41678;52.126;20.664;2022-10-26T08:44:28;30.38;;;13.45;;
55758;SDS011;41678;52.126;20.664;2022-10-26T08:55:22;29.88;;;12.48;;
55758;SDS011;41678;52.126;20.664;2022-10-26T09:00:47;30.00;;;12.57;;
55758;SDS011;41678;52.126;20.664;2022-10-26T09:06:12;34.80;;;14.00;;
55758;SDS011;41678;52.126;20.664;2022-10-26T09:28:48;39.67;;;16.05;;
55758;SDS011;41678;52.126;20.664;2022-10-26T09:34:13;34.00;;;15.80;;
55758;SDS011;41678;52.126;20.664;2022-10-26T09:40:04;41.30;;;16.30;;
55758;SDS011;41678;52.126;20.664;2022-10-26T09:45:32;45.80;;;17.42;;
55758;SDS011;41678;52.126;20.664;2022-10-26T09:50:56;44.28;;;17.70;;
55758;SDS011;41678;52.126;20.664;2022-10-26T09:56:17;37.22;;;15.63;;
55758;SDS011;41678;52.126;20.664;2022-10-26T10:01:38;34.65;;;14.57;;
55758;SDS011;41678;52.126;20.664;2022-10-26T10:12:20;28.65;;;13.90;;
55758;SDS011;41678;52.126;20.664;2022-10-26T10:17:41;38.47;;;14.63;;
55758;SDS011;41678;52.126;20.664;2022-10-26T10:23:09;34.85;;;13.32;;
55758;SDS011;41678;52.126;20.664;2022-10-26T10:28:54;34.45;;;13.60;;
55758;SDS011;41678;52.126;20.664;2022-10-26T10:34:16;31.73;;;14.17;;
55758;SDS011;41678;52.126;20.664;2022-10-26T10:44:57;35.10;;;14.75;;
55758;SDS011;41678;52.126;20.664;2022-10-26T10:50:18;33.72;;;13.40;;
55758;SDS011;41678;52.126;20.664;2022-10-26T10:55:39;33.72;;;13.32;;
55758;SDS011;41678;52.126;20.664;2022-10-26T11:01:12;29.20;;;14.27;;
55758;SDS011;41678;52.126;20.664;2022-10-26T11:06:35;35.72;;;15.63;;
55758;SDS011;41678;52.126;20.664;2022-10-26T11:23:20;24.10;;;10.77;;
55758;SDS011;41678;52.126;20.664;2022-10-26T11:28:53;25.55;;;10.05;;
55758;SDS011;41678;52.126;20.664;2022-10-26T11:40:00;41.05;;;13.48;;
55758;SDS011;41678;52.126;20.664;2022-10-26T11:45:35;32.28;;;15.10;;
55758;SDS011;41678;52.126;20.664;2022-10-26T11:50:58;23.80;;;11.00;;
55758;SDS011;41678;52.126;20.664;2022-10-26T11:56:24;21.40;;;10.90;;
55758;SDS011;41678;52.126;20.664;2022-10-26T12:01:50;18.67;;;10.10;;
55758;SDS011;41678;52.126;20.664;2022-10-26T12:07:20;27.00;;;10.48;;
55758;SDS011;41678;52.126;20.664;2022-10-26T12:12:50;22.95;;;9.93;;
55758;SDS011;41678;52.126;20.664;2022-10-26T12:18:36;23.85;;;9.55;;
55758;SDS011;41678;52.126;20.664;2022-10-26T12:29:44;23.67;;;10.82;;
55758;SDS011;41678;52.126;20.664;2022-10-26T12:51:44;28.70;;;13.10;;
55758;SDS011;41678;52.126;20.664;2022-10-26T13:08:40;32.60;;;13.30;;
55758;SDS011;41678;52.126;20.664;2022-10-26T13:14:07;30.02;;;12.90;;
55758;SDS011;41678;52.126;20.664;2022-10-26T13:19:40;36.60;;;12.88;;
55758;SDS011;41678;52.126;20.664;2022-10-26T13:25:03;24.40;;;12.57;;
55758;SDS011;41678;52.126;20.664;2022-10-26T13:35:53;32.22;;;10.13;;
55758;SDS011;41678;52.126;20.664;2022-10-26T13:41:18;24.77;;;11.07;;
55758;SDS011;41678;52.126;20.664;2022-10-26T13:46:46;21.00;;;9.68;;
55758;SDS011;41678;52.126;20.664;2022-10-26T13:52:14;25.73;;;10.10;;
55758;SDS011;41678;52.126;20.664;2022-10-26T13:57:42;33.60;;;11.23;;
55758;SDS011;41678;52.126;20.664;2022-10-26T14:03:16;25.27;;;10.57;;
55758;SDS011;41678;52.126;20.664;2022-10-26T14:08:39;23.20;;;9.60;;
55758;SDS011;41678;52.126;20.664;2022-10-26T14:14:00;18.50;;;9.82;;
55758;SDS011;41678;52.126;20.664;2022-10-26T14:19:26;21.48;;;8.50;;
55758;SDS011;41678;52.126;20.664;2022-10-26T14:24:54;15.60;;;7.55;;
55758;SDS011;41678;52.126;20.664;2022-10-26T14:30:20;19.38;;;8.02;;
55758;SDS011;41678;52.126;20.664;2022-10-26T14:35:40;18.45;;;7.40;;
55758;SDS011;41678;52.126;20.664;2022-10-26T14:41:00;18.45;;;8.57;;
55758;SDS011;41678;52.126;20.664;2022-10-26T14:46:19;22.40;;;8.77;;
55758;SDS011;41678;52.126;20.664;2022-10-26T14:51:39;24.92;;;10.35;;
55758;SDS011;41678;52.126;20.664;2022-10-26T14:56:59;25.27;;;10.65;;
55758;SDS011;41678;52.126;20.664;2022-10-26T15:02:26;28.05;;;12.18;;
55758;SDS011;41678;52.126;20.664;2022-10-26T15:07:46;30.02;;;12.68;;
55758;SDS011;41678;52.126;20.664;2022-10-26T15:13:27;29.13;;;12.77;;
55758;SDS011;41678;52.126;20.664;2022-10-26T15:18:57;28.95;;;13.45;;
55758;SDS011;41678;52.126;20.664;2022-10-26T15:24:29;31.77;;;13.18;;
55758;SDS011;41678;52.126;20.664;2022-10-26T15:30:08;35.20;;;13.23;;
55758;SDS011;41678;52.126;20.664;2022-10-26T15:35:32;47.95;;;16.75;;
55758;SDS011;41678;52.126;20.664;2022-10-26T15:40:52;35.42;;;18.77;;
55758;SDS011;41678;52.126;20.664;2022-10-26T15:46:11;36.92;;;19.45;;
55758;SDS011;41678;52.126;20.664;2022-10-26T15:51:32;42.35;;;14.38;;
55758;SDS011;41678;52.126;20.664;2022-10-26T15:56:52;29.88;;;13.55;;
55758;SDS011;41678;52.126;20.664;2022-10-26T16:02:12;26.23;;;12.95;;
55758;SDS011;41678;52.126;20.664;2022-10-26T16:07:34;31.67;;;13.52;;
55758;SDS011;41678;52.126;20.664;2022-10-26T16:12:54;32.65;;;14.35;;
55758;SDS011;41678;52.126;20.664;2022-10-26T16:18:14;32.25;;;13.32;;
55758;SDS011;41678;52.126;20.664;2022-10-26T16:23:34;25.77;;;14.43;;
55758;SDS011;41678;52.126;20.664;2022-10-26T16:28:54;30.60;;;14.27;;
55758;SDS011;41678;52.126;20.664;2022-10-26T16:34:13;30.55;;;15.15;;
55758;SDS011;41678;52.126;20.664;2022-10-26T16:39:34;38.00;;;15.35;;
55758;SDS011;41678;52.126;20.664;2022-10-26T16:44:53;48.17;;;24.08;;
55758;SDS011;41678;52.126;20.664;2022-10-26T16:50:13;56.80;;;28.50;;
55758;SDS011;41678;52.126;20.664;2022-10-26T16:55:33;38.22;;;22.45;;
55758;SDS011;41678;52.126;20.664;2022-10-26T17:00:53;47.70;;;21.02;;
55758;SDS011;41678;52.126;20.664;2022-10-26T17:06:14;49.30;;;22.05;;
55758;SDS011;41678;52.126;20.664;2022-10-26T17:11:34;53.00;;;22.53;;
55758;SDS011;41678;52.126;20.664;2022-10-26T17:16:53;55.65;;;26.67;;
55758;SDS011;41678;52.126;20.664;2022-10-26T17:22:13;58.55;;;28.52;;
55758;SDS011;41678;52.126;20.664;2022-10-26T17:27:32;93.95;;;41.53;;
55758;SDS011;41678;52.126;20.664;2022-10-26T17:32:51;82.50;;;39.78;;
55758;SDS011;41678;52.126;20.664;2022-10-26T17:38:11;98.68;;;45.17;;
55758;SDS011;41678;52.126;20.664;2022-10-26T17:43:30;103.65;;;48.92;;
55758;SDS011;41678;52.126;20.664;2022-10-26T17:48:55;110.57;;;53.83;;
55758;SDS011;41678;52.126;20.664;2022-10-26T17:54:16;113.90;;;53.20;;
55758;SDS011;41678;52.126;20.664;2022-10-26T17:59:35;103.20;;;48.97;;
55758;SDS011;41678;52.126;20.664;2022-10-26T18:04:55;95.22;;;47.33;;
55758;SDS011;41678;52.126;20.664;2022-10-26T18:10:14;91.25;;;45.20;;
55758;SDS011;41678;52.126;20.664;2022-10-26T18:15:34;93.32;;;43.13;;
55758;SDS011;41678;52.126;20.664;2022-10-26T18:21:08;94.80;;;44.42;;
55758;SDS011;41678;52.126;20.664;2022-10-26T18:26:30;97.45;;;47.45;;
55758;SDS011;41678;52.126;20.664;2022-10-26T18:31:51;106.43;;;45.25;;
55758;SDS011;41678;52.126;20.664;2022-10-26T18:37:11;102.38;;;43.88;;
55758;SDS011;41678;52.126;20.664;2022-10-26T18:42:31;94.22;;;42.58;;
55758;SDS011;41678;52.126;20.664;2022-10-26T18:47:56;93.32;;;42.03;;
55758;SDS011;41678;52.126;20.664;2022-10-26T18:53:16;84.97;;;39.70;;
55758;SDS011;41678;52.126;20.664;2022-10-26T18:58:39;81.72;;;39.95;;
55758;SDS011;41678;52.126;20.664;2022-10-26T19:04:02;80.90;;;37.90;;
55758;SDS011;41678;52.126;20.664;2022-10-26T19:09:23;90.32;;;39.47;;
55758;SDS011;41678;52.126;20.664;2022-10-26T19:14:43;98.68;;;39.80;;
55758;SDS011;41678;52.126;20.664;2022-10-26T19:20:03;92.40;;;39.97;;
55758;SDS011;41678;52.126;20.664;2022-10-26T19:25:24;80.25;;;36.35;;
55758;SDS011;41678;52.126;20.664;2022-10-26T19:30:43;85.38;;;37.60;;
55758;SDS011;41678;52.126;20.664;2022-10-26T19:36:04;76.53;;;34.00;;
55758;SDS011;41678;52.126;20.664;2022-10-26T19:41:29;67.78;;;32.88;;
55758;SDS011;41678;52.126;20.664;2022-10-26T19:46:49;64.85;;;31.73;;
55758;SDS011;41678;52.126;20.664;2022-10-26T19:52:09;63.28;;;32.45;;
55758;SDS011;41678;52.126;20.664;2022-10-26T19:57:29;77.20;;;38.13;;
55758;SDS011;41678;52.126;20.664;2022-10-26T20:02:49;71.50;;;38.10;;
55758;SDS011;41678;52.126;20.664;2022-10-26T20:08:09;94.55;;;46.85;;
55758;SDS011;41678;52.126;20.664;2022-10-26T20:13:29;100.63;;;45.40;;
55758;SDS011;41678;52.126;20.664;2022-10-26T20:18:49;88.80;;;41.63;;
55758;SDS011;41678;52.126;20.664;2022-10-26T20:24:09;77.38;;;41.58;;
55758;SDS011;41678;52.126;20.664;2022-10-26T20:29:29;80.30;;;39.35;;
55758;SDS011;41678;52.126;20.664;2022-10-26T20:34:49;82.63;;;40.53;;
55758;SDS011;41678;52.126;20.664;2022-10-26T20:40:09;77.78;;;37.40;;
55758;SDS011;41678;52.126;20.664;2022-10-26T20:45:30;79.83;;;36.03;;
55758;SDS011;41678;52.126;20.664;2022-10-26T20:50:52;72.22;;;36.35;;
55758;SDS011;41678;52.126;20.664;2022-10-26T20:56:24;78.60;;;35.17;;
55758;SDS011;41678;52.126;20.664;2022-10-26T21:01:44;77.22;;;34.63;;
55758;SDS011;41678;52.126;20.664;2022-10-26T21:07:04;70.57;;;34.35;;
55758;SDS011;41678;52.126;20.664;2022-10-26T21:12:23;72.03;;;35.05;;
55758;SDS011;41678;52.126;20.664;2022-10-26T21:17:43;65.05;;;31.25;;
55758;SDS011;41678;52.126;20.664;2022-10-26T21:23:02;67.45;;;32.80;;
55758;SDS011;41678;52.126;20.664;2022-10-26T21:28:22;73.47;;;32.75;;
55758;SDS011;41678;52.126;20.664;2022-10-26T21:33:42;61.25;;;30.77;;
55758;SDS011;41678;52.126;20.664;2022-10-26T21:39:03;68.30;;;29.70;;
55758;SDS011;41678;52.126;20.664;2022-10-26T21:44:23;66.22;;;31.27;;
55758;SDS011;41678;52.126;20.664;2022-10-26T21:49:42;68.28;;;30.73;;
55758;SDS011;41678;52.126;20.664;2022-10-26T21:55:02;63.35;;;30.75;;
55758;SDS011;41678;52.126;20.664;2022-10-26T22:00:22;69.65;;;29.88;;
55758;SDS011;41678;52.126;20.664;2022-10-26T22:05:42;62.13;;;27.73;;
55758;SDS011;41678;52.126;20.664;2022-10-26T22:11:09;63.88;;;27.70;;
55758;SDS011;41678;52.126;20.664;2022-10-26T22:16:34;59.53;;;27.33;;
55758;SDS011;41678;52.126;20.664;2022-10-26T22:21:53;63.35;;;26.55;;
55758;SDS011;41678;52.126;20.664;2022-10-26T22:27:13;60.88;;;25.58;;
55758;SDS011;41678;52.126;20.664;2022-10-26T22:32:32;58.17;;;27.20;;
55758;SDS011;41678;52.126;20.664;2022-10-26T22:37:53;46.78;;;23.75;;
55758;SDS011;41678;52.126;20.664;2022-10-26T22:43:12;53.60;;;23.10;;
55758;SDS011;41678;52.126;20.664;2022-10-26T22:48:31;46.95;;;22.80;;
55758;SDS011;41678;52.126;20.664;2022-10-26T22:53:52;52.45;;;23.30;;
55758;SDS011;41678;52.126;20.664;2022-10-26T22:59:13;66.65;;;26.73;;
55758;SDS011;41678;52.126;20.664;2022-10-26T23:04:32;62.00;;;25.75;;
55758;SDS011;41678;52.126;20.664;2022-10-26T23:09:53;55.95;;;25.48;;
55758;SDS011;41678;52.126;20.664;2022-10-26T23:15:12;61.50;;;26.58;;
55758;SDS011;41678;52.126;20.664;2022-10-26T23:20:32;66.60;;;29.02;;
55758;SDS011;41678;52.126;20.664;2022-10-26T23:25:52;61.58;;;24.45;;
55758;SDS011;41678;52.126;20.664;2022-10-26T23:31:14;57.80;;;23.83;;
55758;SDS011;41678;52.126;20.664;2022-10-26T23:36:36;45.85;;;19.50;;
55758;SDS011;41678;52.126;20.664;2022-10-26T23:41:55;50.03;;;23.55;;
55758;SDS011;41678;52.126;20.664;2022-10-26T23:47:14;50.80;;;22.27;;
55758;SDS011;41678;52.126;20.664;2022-10-26T23:52:34;45.70;;;22.05;;
55758;SDS011;41678;52.126;20.664;2022-10-26T23:57:53;37.88;;;18.83;;
